Wednesday, June 20, 2018, 5:13 PM EDT
Back to Local

KDYL, Doylestown Airport

Location: Doylestown, PA, United States Lat: 40.333
Local Time: 5:13 PM EDT (21:13 GMT) Lon: -75.117
Time Zone: US/Eastern Elev: 393 ft

Show me the last for .
Show Decoded

2018-06-20 16:54 METAR KDYL 202054Z AUTO 28006KT 10SM BKN070 OVC100 28/16 A2979 RMK AO2 SLP082
                 T02780161 58012 =
2018-06-20 15:54 METAR KDYL 201954Z AUTO VRB04KT 10SM BKN075 OVC110 28/16 A2981 RMK AO2 SLP087
                 T02830156 =
2018-06-20 14:54 METAR KDYL 201854Z AUTO 27005KT 10SM SCT110 28/14 A2982 RMK AO2 SLP091 T02830144
                 =
2018-06-20 13:54 METAR KDYL 201754Z AUTO 00000KT 10SM CLR 29/14 A2982 RMK AO2 SLP092 T02890144
                 10294 20189 58022 =
2018-06-20 12:54 METAR KDYL 201654Z AUTO VRB03KT 10SM FEW100 28/13 A2985 RMK AO2 SLP101 T02780133
                 =
2018-06-20 11:54 METAR KDYL 201554Z AUTO VRB04KT 10SM CLR 26/15 A2987 RMK AO2 SLP110 T02610150 =
2018-06-20 10:54 METAR KDYL 201454Z AUTO 00000KT 10SM CLR 24/14 A2989 RMK AO2 SLP115 T02440139
                 58007 =
2018-06-20 09:54 METAR KDYL 201354Z AUTO VRB03KT 10SM FEW110 24/14 A2990 RMK AO2 SLP119 T02390139
                 =
2018-06-20 08:54 METAR KDYL 201254Z AUTO VRB03KT 10SM SCT120 22/13 A2991 RMK AO2 SLP122 T02220128
                 =
2018-06-20 07:54 METAR KDYL 201154Z AUTO 04003KT 10SM CLR 19/14 A2991 RMK AO2 SLP122 T01890144
                 10206 20172 51009 =
2018-06-20 06:54 METAR KDYL 201054Z AUTO 00000KT 10SM CLR 18/14 A2990 RMK AO2 SLP121 T01780139 =
2018-06-20 05:54 METAR KDYL 200954Z AUTO 05003KT 10SM CLR 18/13 A2989 RMK AO2 SLP117 T01780128 =
2018-06-20 04:54 METAR KDYL 200854Z AUTO 05003KT 10SM CLR 18/13 A2988 RMK AO2 SLP112 T01780128
                 55000 =
2018-06-20 03:54 METAR KDYL 200754Z AUTO 03003KT 10SM CLR 19/13 A2987 RMK AO2 SLP110 T01890128 =
2018-06-20 02:54 METAR KDYL 200654Z AUTO 02003KT 10SM CLR 20/12 A2988 RMK AO2 SLP112 T02000122 =
2018-06-20 01:54 METAR KDYL 200554Z AUTO 02004KT 10SM CLR 20/12 A2988 RMK AO2 SLP112 T02000122
                 10267 20200 50000 =
2018-06-20 00:54 METAR KDYL 200454Z AUTO 02003KT 10SM CLR 20/13 A2988 RMK AO2 SLP113 T02000128
                 403110200 =
2018-06-19 23:54 METAR KDYL 200354Z AUTO 04004KT 10SM CLR 21/13 A2988 RMK AO2 SLP112 T02110128 =
2018-06-19 22:54 METAR KDYL 200254Z AUTO 03004KT 10SM CLR 22/13 A2988 RMK AO2 SLP112 T02170133
                 50013 =
2018-06-19 21:54 METAR KDYL 200154Z AUTO VRB03KT 10SM CLR 23/13 A2989 RMK AO2 SLP114 T02280133 =
2018-06-19 20:54 METAR KDYL 200054Z AUTO 00000KT 10SM CLR 23/13 A2986 RMK AO2 SLP105 T02330128 =
2018-06-19 19:54 METAR KDYL 192354Z AUTO 02003KT 10SM CLR 27/13 A2984 RMK AO2 SLP098 T02670128
                 10311 20267 53006 =
2018-06-19 18:54 METAR KDYL 192254Z AUTO 01007KT 10SM CLR 29/12 A2983 RMK AO2 SLP093 T02890117 =
2018-06-19 17:54 METAR KDYL 192154Z AUTO 33010KT 10SM CLR 30/13 A2982 RMK AO2 SLP089 T03000133 =

Support USWX by starting your Amazon purchase here.